イカルイト の空港の天気 - METARとTAF

イカルイト空港 ( CYFB / YFB ) - カナダ ヌナブト準州イカルイト
飛行場実況気象(Metar)
観測時間07/20 07:40 EDT (07/20 11:40 UTC)
風向・風速南 8m/s
視程800m
天気現象
全天を覆う雲 鉛直視程 60m
気温4℃
湿度100%
気圧1005.1hPa
METARCYFB 201140Z 17015KT 1/2SM R34/2600V5000FT/U FG VV002 04/04 A2967 RMK FG8 SLP051
過去の天気等 Google飛行場航空写真 Wunderground天気予報

過去48時間のMETAR

飛行場予報(TAF)
発表時間: 7/20 07:38 EDT (7/20 11:38 UTC)
予報対象時間: 20日8時 EDT ~ 21日8時 EDT
風向・風速南 5m/s
視程800m
天気現象
全天を覆う雲 鉛直視程 60m
20日8時 EDT ~ 20日11時 EDT に一時的に
視程10km以上
天気現象運行に影響にある天気現象が終了
全天の4割程度の雲 雲底高度 60m
全天の8割程度の雲 雲底高度 300m
20日11時 EDT から
風向・風速南東 8m/s 瞬間風速 13m/s
視程10km以上
全天の4割程度の雲 雲底高度 180m
全天の8割程度の雲 雲底高度 760m
20日11時 EDT ~ 21日2時 EDT に一時的に
視程6440m
天気現象弱い雨 もや
全天の8割程度の雲 雲底高度 180m
全天を覆う雲 雲底高度 460m
21日2時 EDT から
風向・風速南南東 6m/s 瞬間風速 11m/s
視程10km以上
全天の4割程度の雲 雲底高度 180m
全天の8割程度の雲 雲底高度 760m
21日2時 EDT ~ 21日8時 EDT に一時的に
視程1610m
天気現象もや
全天を覆う雲 雲底高度 60m
TAF CYFB 201138Z 2012/2112 17010KT 1/2SM FG VV002
TEMPO 2012/2015 P6SM NSW SCT002 BKN010
FM201500 14015G25KT P6SM SCT006 BKN025
TEMPO 2015/2106 4SM -RA BR BKN006 OVC015
FM210600 15012G22KT P6SM SCT006 BKN025
TEMPO 2106/2112 1SM BR OVC002 RMK NXT FCST BY 201800Z